createdAt,value
2019-03-10T00:00:40.036Z,91.10
2019-03-10T00:03:08.669Z,91.00
2019-03-10T00:05:37.261Z,91.10
2019-03-10T00:08:07.884Z,91.30
2019-03-10T00:10:36.405Z,91.40
2019-03-10T00:13:05.076Z,91.40
2019-03-10T00:15:33.792Z,91.60
2019-03-10T00:18:02.343Z,91.70
2019-03-10T00:20:30.987Z,91.70
2019-03-10T00:22:59.650Z,91.80
2019-03-10T00:25:28.239Z,91.90
2019-03-10T00:27:56.861Z,91.90
2019-03-10T00:30:25.759Z,92.00
2019-03-10T00:32:54.304Z,92.00
2019-03-10T00:35:22.882Z,92.10
2019-03-10T00:37:51.441Z,92.20
2019-03-10T00:40:40.060Z,92.30
2019-03-10T00:43:23.740Z,92.40
2019-03-10T00:46:15.492Z,92.50
2019-03-10T00:49:03.944Z,92.50
2019-03-10T00:51:56.729Z,92.70
2019-03-10T00:54:25.285Z,93.00
2019-03-10T00:56:53.992Z,92.50
2019-03-10T00:59:22.888Z,92.60
2019-03-10T01:01:51.648Z,92.60
2019-03-10T01:04:20.283Z,92.50
2019-03-10T01:06:49.094Z,92.60
2019-03-10T01:09:17.614Z,92.70
2019-03-10T01:11:46.452Z,92.80
2019-03-10T01:14:15.035Z,92.80
2019-03-10T01:16:44.119Z,92.70
2019-03-10T01:19:12.727Z,92.60
2019-03-10T01:21:42.377Z,92.60
2019-03-10T01:24:11.160Z,92.60
2019-03-10T01:26:39.723Z,92.60
2019-03-10T01:29:08.284Z,92.70
2019-03-10T01:32:02.256Z,92.70
2019-03-10T01:35:01.429Z,92.80
2019-03-10T01:37:30.085Z,93.00
2019-03-10T01:39:59.056Z,93.00
2019-03-10T01:42:27.722Z,93.10
2019-03-10T01:44:56.273Z,93.10
2019-03-10T01:47:24.844Z,93.10
2019-03-10T01:49:53.400Z,93.10
2019-03-10T01:52:21.973Z,93.00
2019-03-10T01:54:50.524Z,93.20
2019-03-10T01:57:19.085Z,92.90
2019-03-10T01:59:47.750Z,92.90
2019-03-10T02:02:24.810Z,92.90
2019-03-10T02:04:46.560Z,92.90
2019-03-10T02:07:15.484Z,92.90
2019-03-10T02:09:44.064Z,92.80
2019-03-10T02:12:12.616Z,92.80
2019-03-10T02:14:41.312Z,92.70
2019-03-10T02:17:10.232Z,92.80
2019-03-10T02:19:38.813Z,92.80
2019-03-10T02:22:07.367Z,92.70
2019-03-10T02:24:36.020Z,92.60
2019-03-10T02:27:04.745Z,92.70
2019-03-10T02:29:33.326Z,92.50
2019-03-10T02:32:01.880Z,93.00
2019-03-10T02:34:30.497Z,92.70
2019-03-10T02:36:59.077Z,92.20
2019-03-10T02:39:27.767Z,92.10
2019-03-10T02:41:56.348Z,91.80
2019-03-10T02:44:25.289Z,90.70
2019-03-10T02:46:53.848Z,90.40
2019-03-10T02:49:22.468Z,88.10
2019-03-10T02:51:51.004Z,88.30
2019-03-10T02:54:19.601Z,85.10
2019-03-10T02:56:48.157Z,80.70
2019-03-10T02:59:16.738Z,80.30
2019-03-10T03:01:45.365Z,82.90
2019-03-10T03:04:14.084Z,86.60
2019-03-10T03:06:42.636Z,87.00
2019-03-10T03:09:11.205Z,88.30
2019-03-10T03:11:40.137Z,89.00
2019-03-10T03:14:08.727Z,90.10
2019-03-10T03:16:37.282Z,91.30
2019-03-10T03:19:05.852Z,91.60
2019-03-10T03:21:43.065Z,92.50
2019-03-10T03:24:04.746Z,92.50
2019-03-10T03:26:33.361Z,93.20
2019-03-10T03:29:02.252Z,93.50
2019-03-10T03:31:30.833Z,93.60
2019-03-10T03:33:59.381Z,94.20
2019-03-10T03:36:30.762Z,95.00
2019-03-10T03:39:08.204Z,95.10
2019-03-10T03:41:36.791Z,95.30
2019-03-10T03:44:05.349Z,95.20
2019-03-10T03:46:33.920Z,95.30
2019-03-10T03:49:02.472Z,95.60
2019-03-10T03:51:31.045Z,95.70
2019-03-10T03:53:59.603Z,95.20
2019-03-10T03:56:28.176Z,95.50
2019-03-10T03:58:56.740Z,95.60
2019-03-10T04:01:30.180Z,95.60
2019-03-10T04:03:58.732Z,94.70
2019-03-10T04:06:27.307Z,95.50
2019-03-10T04:08:55.917Z,95.60
2019-03-10T04:11:24.494Z,95.50
2019-03-10T04:13:53.061Z,96.10
2019-03-10T04:16:21.696Z,96.30
2019-03-10T04:18:50.245Z,95.60
2019-03-10T04:21:19.106Z,96.10
2019-03-10T04:23:48.001Z,96.60
2019-03-10T04:26:16.569Z,96.70
2019-03-10T04:28:45.128Z,96.70
2019-03-10T04:31:13.710Z,96.90
2019-03-10T04:33:42.252Z,97.20
2019-03-10T04:36:11.120Z,97.70
2019-03-10T04:38:39.676Z,98.40
2019-03-10T04:41:08.556Z,98.80
2019-03-10T04:43:37.116Z,99.50
2019-03-10T04:46:05.665Z,99.70
2019-03-10T04:48:34.252Z,99.90
2019-03-10T04:51:02.836Z,99.90
2019-03-10T04:53:31.390Z,99.90
2019-03-10T04:56:14.057Z,99.90
2019-03-10T04:58:44.270Z,99.90
2019-03-10T05:01:12.974Z,99.90
2019-03-10T05:03:41.548Z,99.90
2019-03-10T05:06:10.164Z,99.90
2019-03-10T05:08:38.740Z,99.90
2019-03-10T05:11:07.290Z,99.90
2019-03-10T05:13:35.936Z,99.90
2019-03-10T05:16:05.160Z,99.90
2019-03-10T05:18:33.735Z,99.90
2019-03-10T05:21:02.414Z,99.90
2019-03-10T05:23:36.472Z,99.90
2019-03-10T05:26:05.433Z,99.90
2019-03-10T05:28:42.710Z,99.90
2019-03-10T05:31:11.325Z,99.90
2019-03-10T05:33:39.954Z,99.90
2019-03-10T05:36:08.555Z,99.90
2019-03-10T05:38:37.248Z,99.90
2019-03-10T05:41:05.824Z,99.90
2019-03-10T05:43:34.377Z,99.90
2019-03-10T05:46:03.188Z,99.90
2019-03-10T05:48:31.744Z,99.90
2019-03-10T05:51:00.309Z,99.90
2019-03-10T05:53:28.868Z,99.90
2019-03-10T05:55:57.441Z,99.90
2019-03-10T05:58:25.998Z,99.90
2019-03-10T06:00:54.580Z,99.90
2019-03-10T06:03:23.205Z,99.90
2019-03-10T06:05:51.903Z,99.90
2019-03-10T06:08:20.464Z,99.90
2019-03-10T06:10:49.110Z,99.90
2019-03-10T06:13:17.960Z,99.90
2019-03-10T06:15:46.580Z,99.90
2019-03-10T06:18:15.163Z,99.90
2019-03-10T06:20:43.712Z,99.90
2019-03-10T06:23:12.284Z,99.90
2019-03-10T06:25:40.900Z,99.90
2019-03-10T06:28:09.481Z,99.90
2019-03-10T06:30:38.340Z,99.90
2019-03-10T06:33:06.978Z,99.90
2019-03-10T06:35:35.524Z,99.90
2019-03-10T06:38:04.224Z,99.90
2019-03-10T06:40:32.812Z,99.90
2019-03-10T06:43:01.412Z,99.90
2019-03-10T06:45:29.987Z,99.90
2019-03-10T06:47:58.544Z,99.90
2019-03-10T06:50:27.123Z,99.90
2019-03-10T06:52:55.680Z,99.90
2019-03-10T06:55:24.256Z,99.90
2019-03-10T06:57:52.812Z,99.90
2019-03-10T07:00:21.468Z,99.90
2019-03-10T07:02:50.018Z,99.90
2019-03-10T07:05:18.593Z,99.90
2019-03-10T07:07:47.172Z,99.90
2019-03-10T07:10:16.483Z,99.90
2019-03-10T07:12:45.060Z,99.90
2019-03-10T07:15:14.377Z,99.90
2019-03-10T07:17:43.300Z,99.90
2019-03-10T07:20:17.287Z,99.90
2019-03-10T07:22:45.867Z,99.90
2019-03-10T07:25:14.488Z,99.90
2019-03-10T07:27:50.636Z,99.90
2019-03-10T07:30:32.708Z,99.90
2019-03-10T07:33:19.234Z,99.90
2019-03-10T07:35:55.168Z,99.90
2019-03-10T07:38:25.504Z,99.90
2019-03-10T07:40:55.692Z,99.90
2019-03-10T07:43:42.090Z,99.90
2019-03-10T07:46:22.549Z,99.90
2019-03-10T07:48:55.811Z,99.90
2019-03-10T07:51:41.325Z,99.90
2019-03-10T07:54:14.260Z,99.90
2019-03-10T07:56:44.460Z,99.90
2019-03-10T07:59:20.524Z,99.90
2019-03-10T08:01:56.483Z,99.90
2019-03-10T08:04:26.707Z,99.90
2019-03-10T08:06:59.617Z,99.90
2019-03-10T08:09:35.682Z,99.90
2019-03-10T08:12:05.887Z,99.90
2019-03-10T08:14:36.135Z,99.90
2019-03-10T08:17:12.384Z,99.90
2019-03-10T08:19:48.622Z,99.90
2019-03-10T08:22:35.016Z,99.90
2019-03-10T08:25:08.167Z,99.90
2019-03-10T08:27:41.035Z,99.90
2019-03-10T08:30:14.564Z,99.90
2019-03-10T08:32:56.992Z,99.90
2019-03-10T08:35:44.988Z,99.90
2019-03-10T08:38:18.042Z,99.90
2019-03-10T08:41:00.587Z,99.90
2019-03-10T08:43:47.346Z,99.90
2019-03-10T08:46:20.498Z,99.90
2019-03-10T08:48:50.690Z,99.90
2019-03-10T08:51:20.977Z,99.90
2019-03-10T08:53:54.092Z,99.90
2019-03-10T08:56:24.331Z,99.90
2019-03-10T08:59:10.832Z,99.90
2019-03-10T09:01:53.081Z,99.90
2019-03-10T09:04:41.500Z,99.90
2019-03-10T09:07:17.336Z,99.90
2019-03-10T09:09:59.317Z,99.90
2019-03-10T09:12:29.569Z,99.90
2019-03-10T09:15:00.072Z,99.90
2019-03-10T09:17:33.124Z,99.90
2019-03-10T09:20:06.308Z,99.90
2019-03-10T09:22:54.960Z,99.90
2019-03-10T09:25:25.234Z,99.90
2019-03-10T09:28:10.273Z,99.90
2019-03-10T09:30:42.949Z,99.90
2019-03-10T09:33:27.978Z,99.90
2019-03-10T09:36:07.149Z,99.90
2019-03-10T09:38:46.572Z,99.90
2019-03-10T09:41:33.309Z,99.90
2019-03-10T09:44:12.899Z,99.90
2019-03-10T09:46:59.572Z,99.90
2019-03-10T09:49:35.491Z,99.90
2019-03-10T09:52:11.788Z,99.90
2019-03-10T09:54:44.676Z,99.90
2019-03-10T09:57:15.297Z,99.90
2019-03-10T09:59:48.472Z,99.90
2019-03-10T10:02:25.075Z,99.90
2019-03-10T10:05:02.055Z,99.90
2019-03-10T10:07:32.257Z,99.90
2019-03-10T10:10:05.326Z,99.90
2019-03-10T10:12:35.583Z,99.90
2019-03-10T10:15:17.396Z,99.90
2019-03-10T10:18:04.104Z,99.90
2019-03-10T10:20:51.613Z,99.90
2019-03-10T10:23:21.809Z,99.90
2019-03-10T10:25:57.561Z,99.90
2019-03-10T10:28:28.014Z,99.90
2019-03-10T10:31:14.722Z,99.90
2019-03-10T10:33:44.907Z,99.90
2019-03-10T10:36:30.695Z,99.90
2019-03-10T10:39:16.245Z,99.90
2019-03-10T10:41:55.068Z,99.90
2019-03-10T10:44:25.319Z,99.90
2019-03-10T10:46:55.591Z,99.90
2019-03-10T10:49:38.216Z,99.90
2019-03-10T10:52:14.294Z,99.90
2019-03-10T10:55:00.780Z,99.90
2019-03-10T10:57:43.147Z,99.90
2019-03-10T11:00:16.669Z,99.90
2019-03-10T11:02:50.066Z,99.90
2019-03-10T11:05:23.017Z,99.90
2019-03-10T11:07:59.076Z,99.90
2019-03-10T11:10:31.720Z,99.70
2019-03-10T11:13:04.959Z,99.90
2019-03-10T11:15:35.473Z,99.90
2019-03-10T11:18:09.790Z,99.90
2019-03-10T11:20:43.133Z,99.90
2019-03-10T11:23:13.439Z,99.90
2019-03-10T11:26:00.012Z,99.90
2019-03-10T11:28:48.072Z,99.90
2019-03-10T11:31:18.273Z,99.90
2019-03-10T11:33:50.979Z,99.90
2019-03-10T11:36:21.260Z,99.90
2019-03-10T11:39:06.935Z,99.90
2019-03-10T11:41:53.652Z,99.40
2019-03-10T11:44:40.589Z,98.30
2019-03-10T11:47:10.797Z,98.00
2019-03-10T11:49:44.110Z,96.60
2019-03-10T11:52:17.109Z,96.90
2019-03-10T11:54:49.807Z,97.10
2019-03-10T11:57:20.142Z,95.60
2019-03-10T11:59:50.345Z,95.80
2019-03-10T12:02:38.836Z,95.30
2019-03-10T12:05:21.057Z,94.70
2019-03-10T12:07:51.280Z,93.70
2019-03-10T12:10:21.596Z,93.70
2019-03-10T12:12:50.224Z,93.70
2019-03-10T12:15:18.802Z,95.00
2019-03-10T12:17:47.389Z,94.60
2019-03-10T12:20:15.951Z,94.80
2019-03-10T12:22:44.567Z,94.20
2019-03-10T12:25:14.186Z,92.90
2019-03-10T12:27:42.957Z,92.50
2019-03-10T12:30:13.792Z,92.30
2019-03-10T12:32:43.754Z,92.20
2019-03-10T12:35:12.441Z,91.50
2019-03-10T12:37:41.223Z,92.10
2019-03-10T12:40:13.686Z,92.10
2019-03-10T12:42:42.489Z,91.20
2019-03-10T12:45:11.877Z,91.60
2019-03-10T12:47:40.601Z,92.40
2019-03-10T12:50:13.463Z,92.80
2019-03-10T12:52:42.561Z,92.50
2019-03-10T12:55:11.218Z,92.30
2019-03-10T12:57:39.905Z,92.40
2019-03-10T13:00:13.798Z,90.60
2019-03-10T13:02:42.532Z,90.10
2019-03-10T13:05:11.453Z,89.80
2019-03-10T13:07:40.036Z,89.10
2019-03-10T13:10:08.980Z,90.30
2019-03-10T13:12:37.628Z,90.90
2019-03-10T13:15:11.399Z,91.20
2019-03-10T13:17:39.974Z,91.90
2019-03-10T13:20:11.027Z,92.80
2019-03-10T13:22:39.636Z,92.50
2019-03-10T13:25:11.260Z,93.00
2019-03-10T13:27:39.873Z,93.20
2019-03-10T13:30:11.260Z,93.60
2019-03-10T13:32:39.816Z,93.90
2019-03-10T13:35:08.980Z,93.60
2019-03-10T13:37:37.528Z,94.00
2019-03-10T13:40:11.877Z,93.30
2019-03-10T13:42:40.564Z,91.00
2019-03-10T13:45:13.572Z,90.70
2019-03-10T13:47:42.297Z,89.30
2019-03-10T13:50:15.606Z,84.80
2019-03-10T13:52:44.160Z,88.60
2019-03-10T13:55:13.445Z,86.80
2019-03-10T13:57:41.992Z,85.80
2019-03-10T14:00:19.873Z,84.70
2019-03-10T14:02:48.790Z,84.00
2019-03-10T14:05:17.424Z,83.70
2019-03-10T14:07:46.050Z,82.80
2019-03-10T14:10:14.770Z,83.20
2019-03-10T14:12:43.642Z,81.50
2019-03-10T14:15:13.701Z,82.60
2019-03-10T14:17:42.257Z,82.90
2019-03-10T14:20:15.392Z,80.90
2019-03-10T14:22:44.277Z,79.50
2019-03-10T14:25:14.826Z,80.50
2019-03-10T14:27:43.704Z,76.90
2019-03-10T14:30:14.826Z,77.60
2019-03-10T14:32:43.481Z,75.70
2019-03-10T14:35:12.329Z,76.90
2019-03-10T14:37:40.968Z,82.00
2019-03-10T14:40:17.894Z,88.90
2019-03-10T14:42:46.448Z,90.40
2019-03-10T14:45:18.904Z,90.60
2019-03-10T14:47:47.539Z,90.90
2019-03-10T14:50:18.425Z,91.30
2019-03-10T14:52:47.367Z,91.70
2019-03-10T14:55:21.110Z,92.40
2019-03-10T14:57:49.743Z,91.90
2019-03-10T15:00:21.239Z,91.10
2019-03-10T15:02:49.797Z,90.80
2019-03-10T15:05:18.384Z,90.70
2019-03-10T15:07:47.150Z,88.90
2019-03-10T15:10:16.178Z,90.10
2019-03-10T15:12:44.896Z,88.80
2019-03-10T15:15:22.670Z,88.20
2019-03-10T15:17:48.653Z,87.70
2019-03-10T15:20:18.176Z,87.40
2019-03-10T15:22:46.924Z,88.40
2019-03-10T15:25:17.134Z,88.20
2019-03-10T15:27:45.708Z,87.60
2019-03-10T15:30:20.122Z,89.50
2019-03-10T15:32:48.663Z,90.70
2019-03-10T15:35:17.235Z,91.20
2019-03-10T15:37:45.861Z,92.50
2019-03-10T15:40:15.898Z,92.80
2019-03-10T15:42:44.924Z,92.60
2019-03-10T15:45:17.254Z,92.20
2019-03-10T15:47:45.985Z,92.20
2019-03-10T15:50:20.845Z,92.10
2019-03-10T15:52:49.506Z,91.70
2019-03-10T15:55:18.155Z,90.80
2019-03-10T15:57:50.520Z,90.20
2019-03-10T16:00:25.725Z,90.30
2019-03-10T16:02:54.571Z,89.40
2019-03-10T16:05:23.230Z,87.30
2019-03-10T16:07:51.881Z,84.00
2019-03-10T16:10:20.514Z,81.60
2019-03-10T16:12:49.608Z,80.90
2019-03-10T16:15:27.160Z,78.30
2019-03-10T16:17:55.954Z,76.80
2019-03-10T16:20:24.677Z,76.50
2019-03-10T16:22:55.298Z,76.80
2019-03-10T16:25:23.701Z,73.30
2019-03-10T16:27:52.284Z,72.70
2019-03-10T16:30:22.190Z,72.60
2019-03-10T16:32:50.818Z,73.40
2019-03-10T16:35:21.959Z,72.40
2019-03-10T16:37:49.854Z,73.00
2019-03-10T16:40:19.548Z,74.30
2019-03-10T16:42:48.209Z,74.30
2019-03-10T16:45:22.297Z,73.50
2019-03-10T16:47:51.107Z,72.90
2019-03-10T16:50:21.039Z,72.10
2019-03-10T16:52:49.613Z,72.00
2019-03-10T16:55:18.413Z,72.20
2019-03-10T16:57:47.188Z,70.70
2019-03-10T17:00:18.465Z,70.30
2019-03-10T17:02:47.277Z,69.20
2019-03-10T17:05:17.493Z,68.10
2019-03-10T17:07:46.234Z,68.10
2019-03-10T17:10:22.841Z,69.10
2019-03-10T17:12:51.748Z,69.00
2019-03-10T17:15:24.161Z,69.80
2019-03-10T17:17:52.883Z,69.10
2019-03-10T17:20:21.701Z,70.40
2019-03-10T17:22:51.304Z,71.40
2019-03-10T17:25:19.939Z,71.80
2019-03-10T17:27:48.587Z,71.50
2019-03-10T17:30:25.076Z,70.50
2019-03-10T17:32:53.750Z,70.80
2019-03-10T17:35:22.528Z,72.40
2019-03-10T17:37:51.104Z,71.70
2019-03-10T17:40:24.329Z,71.10
2019-03-10T17:42:53.140Z,71.30
2019-03-10T17:45:23.029Z,71.00
2019-03-10T17:47:51.592Z,71.70
2019-03-10T17:50:20.418Z,72.60
2019-03-10T17:52:49.813Z,73.20
2019-03-10T17:55:19.642Z,72.20
2019-03-10T17:57:48.206Z,72.90
2019-03-10T18:00:20.474Z,73.60
2019-03-10T18:02:49.029Z,74.70
2019-03-10T18:05:17.620Z,75.30
2019-03-10T18:07:46.180Z,75.20
2019-03-10T18:10:16.301Z,75.60
2019-03-10T18:12:44.928Z,76.50
2019-03-10T18:15:15.914Z,77.60
2019-03-10T18:17:44.553Z,79.50
2019-03-10T18:20:18.477Z,79.10
2019-03-10T18:22:47.171Z,78.90
2019-03-10T18:25:16.085Z,79.70
2019-03-10T18:27:44.700Z,79.70
2019-03-10T18:30:20.934Z,78.90
2019-03-10T18:32:49.552Z,76.70
2019-03-10T18:35:18.369Z,76.30
2019-03-10T18:37:46.983Z,74.30
2019-03-10T18:40:20.247Z,72.80
2019-03-10T18:42:48.844Z,70.60
2019-03-10T18:45:18.759Z,70.70
2019-03-10T18:47:47.346Z,70.90
2019-03-10T18:50:20.808Z,72.80
2019-03-10T18:52:49.660Z,74.30
2019-03-10T18:55:18.981Z,75.40
2019-03-10T18:57:47.636Z,75.80
2019-03-10T19:00:21.094Z,77.10
2019-03-10T19:02:49.903Z,77.10
2019-03-10T19:05:18.625Z,77.50
2019-03-10T19:07:47.265Z,78.20
2019-03-10T19:10:15.868Z,79.40
2019-03-10T19:12:44.516Z,80.70
2019-03-10T19:15:26.299Z,80.60
2019-03-10T19:17:55.008Z,81.50
2019-03-10T19:20:23.581Z,81.70
2019-03-10T19:22:52.317Z,87.90
2019-03-10T19:25:20.886Z,92.50
2019-03-10T19:27:49.748Z,92.90
2019-03-10T19:30:24.913Z,93.50
2019-03-10T19:32:54.456Z,94.20
2019-03-10T19:35:23.132Z,94.00
2019-03-10T19:37:51.759Z,94.30
2019-03-10T19:40:22.544Z,94.10
2019-03-10T19:42:51.114Z,94.10
2019-03-10T19:45:22.111Z,94.70
2019-03-10T19:47:50.814Z,95.10
2019-03-10T19:50:26.893Z,95.40
2019-03-10T19:52:54.479Z,94.80
2019-03-10T19:55:23.160Z,93.90
2019-03-10T19:57:51.954Z,93.50
2019-03-10T20:00:21.567Z,93.30
2019-03-10T20:02:50.551Z,93.60
2019-03-10T20:05:19.180Z,92.70
2019-03-10T20:07:47.919Z,92.50
2019-03-10T20:10:17.733Z,92.90
2019-03-10T20:12:46.524Z,92.40
2019-03-10T20:15:21.773Z,92.80
2019-03-10T20:17:50.665Z,92.40
2019-03-10T20:20:22.314Z,92.10
2019-03-10T20:22:50.886Z,91.50
2019-03-10T20:25:19.592Z,91.60
2019-03-10T20:27:48.159Z,91.60
2019-03-10T20:30:18.846Z,91.40
2019-03-10T20:32:47.600Z,91.70
2019-03-10T20:35:16.288Z,91.60
2019-03-10T20:37:44.944Z,91.90
2019-03-10T20:40:21.846Z,91.80
2019-03-10T20:42:50.396Z,91.20
2019-03-10T20:45:19.371Z,91.20
2019-03-10T20:47:48.044Z,91.10
2019-03-10T20:50:17.829Z,87.70
2019-03-10T20:52:46.674Z,90.40
2019-03-10T20:55:15.762Z,88.50
2019-03-10T20:57:44.951Z,88.10
2019-03-10T21:00:24.573Z,86.10
2019-03-10T21:02:53.200Z,82.60
2019-03-10T21:05:21.753Z,82.60
2019-03-10T21:07:50.405Z,81.60
2019-03-10T21:10:26.152Z,81.00
2019-03-10T21:12:54.724Z,79.60
2019-03-10T21:15:26.051Z,79.30
2019-03-10T21:17:54.140Z,78.20
2019-03-10T21:20:24.707Z,82.10
2019-03-10T21:22:53.345Z,86.30
2019-03-10T21:25:26.261Z,91.00
2019-03-10T21:27:55.121Z,93.10
2019-03-10T21:30:28.957Z,94.60
2019-03-10T21:32:57.521Z,95.70
2019-03-10T21:35:26.092Z,97.10
2019-03-10T21:37:54.659Z,96.60
2019-03-10T21:40:28.922Z,97.10
2019-03-10T21:42:57.889Z,96.60
2019-03-10T21:45:26.806Z,96.50
2019-03-10T21:47:55.362Z,96.10
2019-03-10T21:50:23.960Z,93.40
2019-03-10T21:52:52.535Z,93.40
2019-03-10T21:55:22.832Z,93.30
2019-03-10T21:57:51.440Z,93.30
2019-03-10T22:00:20.732Z,92.90
2019-03-10T22:02:49.550Z,92.20
2019-03-10T22:05:18.840Z,91.20
2019-03-10T22:07:49.349Z,90.90
2019-03-10T22:10:26.801Z,90.40
2019-03-10T22:12:50.273Z,88.90
2019-03-10T22:15:19.712Z,90.80
2019-03-10T22:17:48.325Z,91.20
2019-03-10T22:20:18.052Z,92.00
2019-03-10T22:22:49.308Z,91.40
2019-03-10T22:25:17.275Z,90.80
2019-03-10T22:27:46.584Z,90.40
2019-03-10T22:30:24.520Z,90.30
2019-03-10T22:32:53.072Z,91.00
2019-03-10T22:35:21.674Z,90.50
2019-03-10T22:37:50.232Z,90.00
2019-03-10T22:40:19.044Z,90.40
2019-03-10T22:42:47.795Z,90.10
2019-03-10T22:45:20.125Z,90.40
2019-03-10T22:47:48.713Z,89.80
2019-03-10T22:50:17.838Z,90.40
2019-03-10T22:52:46.581Z,90.30
2019-03-10T22:55:15.879Z,90.60
2019-03-10T22:57:44.463Z,89.80
2019-03-10T23:00:18.603Z,89.80
2019-03-10T23:02:47.237Z,89.00
2019-03-10T23:05:15.981Z,87.40
2019-03-10T23:07:44.625Z,85.00
2019-03-10T23:10:14.520Z,84.20
2019-03-10T23:12:43.269Z,84.70
2019-03-10T23:15:13.173Z,82.70
2019-03-10T23:17:41.812Z,82.00
2019-03-10T23:20:12.723Z,81.30
2019-03-10T23:22:41.298Z,81.30
2019-03-10T23:25:10.194Z,81.50
2019-03-10T23:27:38.943Z,81.30
2019-03-10T23:30:15.981Z,80.70
2019-03-10T23:32:44.579Z,80.80
2019-03-10T23:35:13.209Z,79.90
2019-03-10T23:37:42.333Z,80.20
2019-03-10T23:40:19.153Z,80.60
2019-03-10T23:42:47.707Z,81.10
2019-03-10T23:45:17.229Z,81.90
2019-03-10T23:47:45.990Z,81.90
2019-03-10T23:50:17.369Z,81.70
2019-03-10T23:52:46.264Z,82.10
2019-03-10T23:55:15.377Z,81.80
2019-03-10T23:57:44.068Z,81.70
